sensor_id;sensor_type;location;lat;lon;timestamp;P1;durP1;ratioP1;P2;durP2;ratioP2
43154;SDS011;34212;51.018;13.586;2024-03-02T00:00:15;39.67;;;26.52;;
43154;SDS011;34212;51.018;13.586;2024-03-02T00:05:18;45.42;;;29.20;;
43154;SDS011;34212;51.018;13.586;2024-03-02T00:10:22;51.58;;;28.75;;
43154;SDS011;34212;51.018;13.586;2024-03-02T00:20:31;41.88;;;27.83;;
43154;SDS011;34212;51.018;13.586;2024-03-02T00:25:52;43.13;;;27.98;;
43154;SDS011;34212;51.018;13.586;2024-03-02T00:30:58;41.60;;;28.83;;
43154;SDS011;34212;51.018;13.586;2024-03-02T00:36:03;50.20;;;29.48;;
43154;SDS011;34212;51.018;13.586;2024-03-02T00:41:06;39.78;;;27.15;;
43154;SDS011;34212;51.018;13.586;2024-03-02T00:56:13;38.40;;;27.05;;
43154;SDS011;34212;51.018;13.586;2024-03-02T01:01:15;42.13;;;27.40;;
43154;SDS011;34212;51.018;13.586;2024-03-02T01:06:17;45.30;;;27.95;;
43154;SDS011;34212;51.018;13.586;2024-03-02T01:11:19;52.88;;;32.95;;
43154;SDS011;34212;51.018;13.586;2024-03-02T01:16:25;45.72;;;30.30;;
43154;SDS011;34212;51.018;13.586;2024-03-02T01:21:26;46.83;;;28.77;;
43154;SDS011;34212;51.018;13.586;2024-03-02T01:26:28;48.22;;;31.00;;
43154;SDS011;34212;51.018;13.586;2024-03-02T01:31:29;44.00;;;25.90;;
43154;SDS011;34212;51.018;13.586;2024-03-02T01:36:31;47.42;;;28.42;;
43154;SDS011;34212;51.018;13.586;2024-03-02T01:41:32;48.30;;;29.90;;
43154;SDS011;34212;51.018;13.586;2024-03-02T01:46:34;48.47;;;29.85;;
43154;SDS011;34212;51.018;13.586;2024-03-02T01:51:36;45.17;;;29.10;;
43154;SDS011;34212;51.018;13.586;2024-03-02T01:56:37;45.00;;;29.15;;
43154;SDS011;34212;51.018;13.586;2024-03-02T02:01:39;45.95;;;28.92;;
43154;SDS011;34212;51.018;13.586;2024-03-02T02:06:40;49.53;;;30.10;;
43154;SDS011;34212;51.018;13.586;2024-03-02T02:11:42;47.53;;;30.80;;
43154;SDS011;34212;51.018;13.586;2024-03-02T02:16:44;46.08;;;29.98;;
43154;SDS011;34212;51.018;13.586;2024-03-02T02:21:45;47.83;;;28.85;;
43154;SDS011;34212;51.018;13.586;2024-03-02T02:26:47;46.80;;;28.65;;
43154;SDS011;34212;51.018;13.586;2024-03-02T02:31:49;46.33;;;26.92;;
43154;SDS011;34212;51.018;13.586;2024-03-02T02:36:50;49.75;;;31.90;;
43154;SDS011;34212;51.018;13.586;2024-03-02T02:41:52;50.70;;;30.77;;
43154;SDS011;34212;51.018;13.586;2024-03-02T02:46:54;50.67;;;31.17;;
43154;SDS011;34212;51.018;13.586;2024-03-02T02:51:55;52.78;;;29.92;;
43154;SDS011;34212;51.018;13.586;2024-03-02T02:56:57;54.10;;;29.75;;
43154;SDS011;34212;51.018;13.586;2024-03-02T03:01:58;50.05;;;28.50;;
43154;SDS011;34212;51.018;13.586;2024-03-02T03:07:00;47.53;;;28.80;;
43154;SDS011;34212;51.018;13.586;2024-03-02T03:12:02;46.45;;;28.00;;
43154;SDS011;34212;51.018;13.586;2024-03-02T03:17:04;50.20;;;29.77;;
43154;SDS011;34212;51.018;13.586;2024-03-02T03:22:05;51.78;;;28.63;;
43154;SDS011;34212;51.018;13.586;2024-03-02T03:27:07;45.72;;;28.05;;
43154;SDS011;34212;51.018;13.586;2024-03-02T03:32:09;53.35;;;29.20;;
43154;SDS011;34212;51.018;13.586;2024-03-02T03:37:10;48.67;;;26.75;;
43154;SDS011;34212;51.018;13.586;2024-03-02T03:42:12;55.33;;;27.67;;
43154;SDS011;34212;51.018;13.586;2024-03-02T03:47:13;52.92;;;29.55;;
43154;SDS011;34212;51.018;13.586;2024-03-02T03:52:15;48.67;;;28.40;;
43154;SDS011;34212;51.018;13.586;2024-03-02T03:57:16;52.17;;;30.20;;
43154;SDS011;34212;51.018;13.586;2024-03-02T04:02:18;55.90;;;30.47;;
43154;SDS011;34212;51.018;13.586;2024-03-02T04:07:20;51.80;;;29.95;;
43154;SDS011;34212;51.018;13.586;2024-03-02T04:12:21;57.42;;;31.05;;
43154;SDS011;34212;51.018;13.586;2024-03-02T04:17:23;52.47;;;31.10;;
43154;SDS011;34212;51.018;13.586;2024-03-02T04:22:25;45.28;;;27.40;;
43154;SDS011;34212;51.018;13.586;2024-03-02T04:27:28;43.42;;;27.38;;
43154;SDS011;34212;51.018;13.586;2024-03-02T04:32:29;47.13;;;28.10;;
43154;SDS011;34212;51.018;13.586;2024-03-02T04:37:32;49.45;;;27.90;;
43154;SDS011;34212;51.018;13.586;2024-03-02T04:42:35;42.22;;;25.30;;
43154;SDS011;34212;51.018;13.586;2024-03-02T04:47:37;43.07;;;27.70;;
43154;SDS011;34212;51.018;13.586;2024-03-02T04:52:38;46.00;;;27.13;;
43154;SDS011;34212;51.018;13.586;2024-03-02T04:57:40;48.88;;;28.05;;
43154;SDS011;34212;51.018;13.586;2024-03-02T05:02:42;47.60;;;27.30;;
43154;SDS011;34212;51.018;13.586;2024-03-02T05:07:43;44.67;;;26.23;;
43154;SDS011;34212;51.018;13.586;2024-03-02T05:12:45;48.73;;;27.93;;
43154;SDS011;34212;51.018;13.586;2024-03-02T05:17:47;46.90;;;28.13;;
43154;SDS011;34212;51.018;13.586;2024-03-02T05:22:48;44.33;;;27.08;;
43154;SDS011;34212;51.018;13.586;2024-03-02T05:27:50;49.03;;;26.55;;
43154;SDS011;34212;51.018;13.586;2024-03-02T05:32:52;43.37;;;26.50;;
43154;SDS011;34212;51.018;13.586;2024-03-02T05:37:54;46.13;;;25.60;;
43154;SDS011;34212;51.018;13.586;2024-03-02T05:42:55;44.00;;;25.52;;
43154;SDS011;34212;51.018;13.586;2024-03-02T05:47:57;36.47;;;23.33;;
43154;SDS011;34212;51.018;13.586;2024-03-02T05:52:59;36.00;;;22.17;;
43154;SDS011;34212;51.018;13.586;2024-03-02T05:58:00;34.17;;;21.10;;
43154;SDS011;34212;51.018;13.586;2024-03-02T06:03:08;34.95;;;22.42;;
43154;SDS011;34212;51.018;13.586;2024-03-02T06:13:12;30.90;;;20.17;;
43154;SDS011;34212;51.018;13.586;2024-03-02T06:18:13;29.27;;;18.77;;
43154;SDS011;34212;51.018;13.586;2024-03-02T06:23:15;26.05;;;18.08;;
43154;SDS011;34212;51.018;13.586;2024-03-02T06:28:17;32.50;;;22.67;;
43154;SDS011;34212;51.018;13.586;2024-03-02T06:33:18;38.28;;;23.17;;
43154;SDS011;34212;51.018;13.586;2024-03-02T06:38:20;29.67;;;20.80;;
43154;SDS011;34212;51.018;13.586;2024-03-02T06:43:21;27.40;;;19.42;;
43154;SDS011;34212;51.018;13.586;2024-03-02T06:48:26;27.65;;;19.33;;
43154;SDS011;34212;51.018;13.586;2024-03-02T06:53:27;30.02;;;20.52;;
43154;SDS011;34212;51.018;13.586;2024-03-02T06:58:29;30.13;;;19.52;;
43154;SDS011;34212;51.018;13.586;2024-03-02T07:03:31;27.27;;;19.05;;
43154;SDS011;34212;51.018;13.586;2024-03-02T07:08:34;27.98;;;20.10;;
43154;SDS011;34212;51.018;13.586;2024-03-02T07:13:35;30.42;;;19.08;;
43154;SDS011;34212;51.018;13.586;2024-03-02T07:18:37;28.63;;;18.52;;
43154;SDS011;34212;51.018;13.586;2024-03-02T07:23:42;29.38;;;19.85;;
43154;SDS011;34212;51.018;13.586;2024-03-02T07:28:45;25.40;;;17.88;;
43154;SDS011;34212;51.018;13.586;2024-03-02T07:33:48;29.73;;;19.23;;
43154;SDS011;34212;51.018;13.586;2024-03-02T07:38:50;25.27;;;18.40;;
43154;SDS011;34212;51.018;13.586;2024-03-02T07:43:52;27.77;;;18.05;;
43154;SDS011;34212;51.018;13.586;2024-03-02T07:48:53;25.88;;;18.25;;
43154;SDS011;34212;51.018;13.586;2024-03-02T07:53:55;27.77;;;18.58;;
43154;SDS011;34212;51.018;13.586;2024-03-02T07:58:56;24.90;;;17.33;;
43154;SDS011;34212;51.018;13.586;2024-03-02T08:04:02;21.65;;;16.15;;
43154;SDS011;34212;51.018;13.586;2024-03-02T08:09:06;21.88;;;16.15;;
43154;SDS011;34212;51.018;13.586;2024-03-02T08:14:11;20.42;;;15.82;;
43154;SDS011;34212;51.018;13.586;2024-03-02T08:19:12;27.38;;;22.67;;
43154;SDS011;34212;51.018;13.586;2024-03-02T08:24:14;22.17;;;15.60;;
43154;SDS011;34212;51.018;13.586;2024-03-02T08:29:16;22.13;;;15.07;;
43154;SDS011;34212;51.018;13.586;2024-03-02T08:34:17;27.25;;;18.58;;
43154;SDS011;34212;51.018;13.586;2024-03-02T08:39:19;53.05;;;37.25;;
43154;SDS011;34212;51.018;13.586;2024-03-02T08:44:21;31.20;;;22.40;;
43154;SDS011;34212;51.018;13.586;2024-03-02T08:49:23;20.75;;;16.27;;
43154;SDS011;34212;51.018;13.586;2024-03-02T08:54:24;22.02;;;16.55;;
43154;SDS011;34212;51.018;13.586;2024-03-02T08:59:26;23.52;;;16.27;;
43154;SDS011;34212;51.018;13.586;2024-03-02T09:04:29;17.05;;;11.75;;
43154;SDS011;34212;51.018;13.586;2024-03-02T09:09:35;15.73;;;11.32;;
43154;SDS011;34212;51.018;13.586;2024-03-02T09:14:36;16.05;;;11.13;;
43154;SDS011;34212;51.018;13.586;2024-03-02T09:19:39;14.50;;;11.10;;
43154;SDS011;34212;51.018;13.586;2024-03-02T09:24:41;17.07;;;11.03;;
43154;SDS011;34212;51.018;13.586;2024-03-02T09:29:42;14.32;;;9.73;;
43154;SDS011;34212;51.018;13.586;2024-03-02T09:34:44;26.27;;;17.98;;
43154;SDS011;34212;51.018;13.586;2024-03-02T09:39:45;12.13;;;7.78;;
43154;SDS011;34212;51.018;13.586;2024-03-02T09:44:47;10.38;;;8.95;;
43154;SDS011;34212;51.018;13.586;2024-03-02T09:49:49;14.38;;;9.75;;
43154;SDS011;34212;51.018;13.586;2024-03-02T09:54:50;15.50;;;9.80;;
43154;SDS011;34212;51.018;13.586;2024-03-02T09:59:52;11.80;;;9.00;;
43154;SDS011;34212;51.018;13.586;2024-03-02T10:04:54;14.93;;;8.50;;
43154;SDS011;34212;51.018;13.586;2024-03-02T10:09:55;16.45;;;8.40;;
43154;SDS011;34212;51.018;13.586;2024-03-02T10:15:03;13.50;;;10.68;;
43154;SDS011;34212;51.018;13.586;2024-03-02T10:20:21;27.08;;;18.95;;
43154;SDS011;34212;51.018;13.586;2024-03-02T10:25:33;28.52;;;20.20;;
43154;SDS011;34212;51.018;13.586;2024-03-02T10:30:51;24.75;;;17.05;;
43154;SDS011;34212;51.018;13.586;2024-03-02T10:35:54;23.70;;;15.82;;
43154;SDS011;34212;51.018;13.586;2024-03-02T10:40:57;29.97;;;18.33;;
43154;SDS011;34212;51.018;13.586;2024-03-02T10:46:00;26.67;;;16.80;;
43154;SDS011;34212;51.018;13.586;2024-03-02T10:51:02;23.17;;;15.43;;
43154;SDS011;34212;51.018;13.586;2024-03-02T10:56:04;23.93;;;16.23;;
43154;SDS011;34212;51.018;13.586;2024-03-02T11:01:10;15.05;;;9.63;;
43154;SDS011;34212;51.018;13.586;2024-03-02T11:06:14;11.60;;;8.15;;
43154;SDS011;34212;51.018;13.586;2024-03-02T11:11:29;12.55;;;7.63;;
43154;SDS011;34212;51.018;13.586;2024-03-02T11:16:37;13.20;;;8.65;;
43154;SDS011;34212;51.018;13.586;2024-03-02T11:21:40;16.58;;;9.70;;
43154;SDS011;34212;51.018;13.586;2024-03-02T11:26:42;13.18;;;9.52;;
43154;SDS011;34212;51.018;13.586;2024-03-02T11:31:59;15.85;;;9.73;;
43154;SDS011;34212;51.018;13.586;2024-03-02T11:37:02;12.95;;;9.18;;
43154;SDS011;34212;51.018;13.586;2024-03-02T11:42:05;12.13;;;8.55;;
43154;SDS011;34212;51.018;13.586;2024-03-02T11:47:13;13.93;;;8.02;;
43154;SDS011;34212;51.018;13.586;2024-03-02T11:52:16;11.30;;;7.07;;
43154;SDS011;34212;51.018;13.586;2024-03-02T11:57:20;12.18;;;7.53;;
43154;SDS011;34212;51.018;13.586;2024-03-02T12:02:24;11.90;;;8.07;;
43154;SDS011;34212;51.018;13.586;2024-03-02T12:07:25;10.37;;;7.27;;
43154;SDS011;34212;51.018;13.586;2024-03-02T12:17:29;13.57;;;7.20;;
43154;SDS011;34212;51.018;13.586;2024-03-02T12:22:31;17.65;;;8.40;;
43154;SDS011;34212;51.018;13.586;2024-03-02T12:27:32;12.23;;;8.50;;
43154;SDS011;34212;51.018;13.586;2024-03-02T12:32:34;13.00;;;9.70;;
43154;SDS011;34212;51.018;13.586;2024-03-02T12:37:41;13.40;;;9.63;;
43154;SDS011;34212;51.018;13.586;2024-03-02T12:42:46;17.15;;;10.60;;
43154;SDS011;34212;51.018;13.586;2024-03-02T12:47:48;16.92;;;11.27;;
43154;SDS011;34212;51.018;13.586;2024-03-02T12:52:53;16.27;;;11.53;;
43154;SDS011;34212;51.018;13.586;2024-03-02T12:57:56;15.77;;;11.57;;
43154;SDS011;34212;51.018;13.586;2024-03-02T13:02:58;15.27;;;10.60;;
43154;SDS011;34212;51.018;13.586;2024-03-02T13:08:04;14.80;;;10.88;;
43154;SDS011;34212;51.018;13.586;2024-03-02T13:13:08;12.95;;;9.77;;
43154;SDS011;34212;51.018;13.586;2024-03-02T13:18:09;16.57;;;10.13;;
43154;SDS011;34212;51.018;13.586;2024-03-02T13:23:12;13.75;;;9.32;;
43154;SDS011;34212;51.018;13.586;2024-03-02T13:28:14;15.02;;;8.95;;
43154;SDS011;34212;51.018;13.586;2024-03-02T13:33:15;17.43;;;10.17;;
43154;SDS011;34212;51.018;13.586;2024-03-02T13:38:17;17.42;;;11.18;;
43154;SDS011;34212;51.018;13.586;2024-03-02T13:43:20;20.17;;;11.05;;
43154;SDS011;34212;51.018;13.586;2024-03-02T13:48:21;20.00;;;12.00;;
43154;SDS011;34212;51.018;13.586;2024-03-02T13:53:23;20.60;;;10.60;;
43154;SDS011;34212;51.018;13.586;2024-03-02T13:58:25;20.27;;;11.90;;
43154;SDS011;34212;51.018;13.586;2024-03-02T14:08:31;15.50;;;11.02;;
43154;SDS011;34212;51.018;13.586;2024-03-02T14:13:35;18.60;;;11.57;;
43154;SDS011;34212;51.018;13.586;2024-03-02T14:18:36;21.17;;;12.15;;
43154;SDS011;34212;51.018;13.586;2024-03-02T14:23:38;18.55;;;12.27;;
43154;SDS011;34212;51.018;13.586;2024-03-02T14:28:39;19.55;;;11.70;;
43154;SDS011;34212;51.018;13.586;2024-03-02T14:33:51;19.53;;;11.70;;
43154;SDS011;34212;51.018;13.586;2024-03-02T14:38:54;18.75;;;11.90;;
43154;SDS011;34212;51.018;13.586;2024-03-02T14:43:56;23.85;;;15.02;;
43154;SDS011;34212;51.018;13.586;2024-03-02T14:48:58;25.75;;;15.20;;
43154;SDS011;34212;51.018;13.586;2024-03-02T14:54:00;23.23;;;15.27;;
43154;SDS011;34212;51.018;13.586;2024-03-02T14:59:01;25.10;;;15.65;;
43154;SDS011;34212;51.018;13.586;2024-03-02T15:04:03;28.80;;;17.30;;
43154;SDS011;34212;51.018;13.586;2024-03-02T15:09:04;32.87;;;16.97;;
43154;SDS011;34212;51.018;13.586;2024-03-02T15:14:06;28.43;;;15.73;;
43154;SDS011;34212;51.018;13.586;2024-03-02T15:19:08;32.38;;;15.63;;
43154;SDS011;34212;51.018;13.586;2024-03-02T15:24:10;26.13;;;16.10;;
43154;SDS011;34212;51.018;13.586;2024-03-02T15:29:11;29.55;;;15.93;;
43154;SDS011;34212;51.018;13.586;2024-03-02T15:34:13;23.80;;;15.40;;
43154;SDS011;34212;51.018;13.586;2024-03-02T15:39:14;26.33;;;14.98;;
43154;SDS011;34212;51.018;13.586;2024-03-02T15:44:16;22.60;;;14.10;;
43154;SDS011;34212;51.018;13.586;2024-03-02T15:49:17;23.98;;;14.88;;
43154;SDS011;34212;51.018;13.586;2024-03-02T15:54:21;22.05;;;14.32;;
43154;SDS011;34212;51.018;13.586;2024-03-02T15:59:23;25.00;;;14.65;;
43154;SDS011;34212;51.018;13.586;2024-03-02T16:04:24;20.73;;;14.55;;
43154;SDS011;34212;51.018;13.586;2024-03-02T16:09:26;21.43;;;14.87;;
43154;SDS011;34212;51.018;13.586;2024-03-02T16:14:28;24.73;;;14.95;;
43154;SDS011;34212;51.018;13.586;2024-03-02T16:19:29;24.77;;;14.55;;
43154;SDS011;34212;51.018;13.586;2024-03-02T16:24:33;24.25;;;16.20;;
43154;SDS011;34212;51.018;13.586;2024-03-02T16:29:35;26.45;;;15.52;;
43154;SDS011;34212;51.018;13.586;2024-03-02T16:34:37;23.63;;;14.60;;
43154;SDS011;34212;51.018;13.586;2024-03-02T16:44:41;27.67;;;14.75;;
43154;SDS011;34212;51.018;13.586;2024-03-02T16:49:43;25.95;;;14.70;;
43154;SDS011;34212;51.018;13.586;2024-03-02T16:54:49;22.98;;;13.70;;
43154;SDS011;34212;51.018;13.586;2024-03-02T16:59:51;27.50;;;14.73;;
43154;SDS011;34212;51.018;13.586;2024-03-02T17:04:53;21.73;;;14.50;;
43154;SDS011;34212;51.018;13.586;2024-03-02T17:09:55;22.77;;;14.77;;
43154;SDS011;34212;51.018;13.586;2024-03-02T17:15:00;21.88;;;14.30;;
43154;SDS011;34212;51.018;13.586;2024-03-02T17:20:02;23.73;;;14.75;;
43154;SDS011;34212;51.018;13.586;2024-03-02T17:25:06;21.80;;;15.82;;
43154;SDS011;34212;51.018;13.586;2024-03-02T17:30:08;29.80;;;16.02;;
43154;SDS011;34212;51.018;13.586;2024-03-02T17:35:10;26.88;;;16.45;;
43154;SDS011;34212;51.018;13.586;2024-03-02T17:40:12;30.98;;;17.88;;
43154;SDS011;34212;51.018;13.586;2024-03-02T17:45:13;29.05;;;17.63;;
43154;SDS011;34212;51.018;13.586;2024-03-02T17:50:15;24.67;;;17.20;;
43154;SDS011;34212;51.018;13.586;2024-03-02T17:55:16;23.73;;;16.63;;
43154;SDS011;34212;51.018;13.586;2024-03-02T18:00:18;22.33;;;15.35;;
43154;SDS011;34212;51.018;13.586;2024-03-02T18:05:22;23.02;;;15.90;;
43154;SDS011;34212;51.018;13.586;2024-03-02T18:10:23;24.75;;;15.85;;
43154;SDS011;34212;51.018;13.586;2024-03-02T18:15:25;23.70;;;15.52;;
43154;SDS011;34212;51.018;13.586;2024-03-02T18:20:27;25.95;;;16.45;;
43154;SDS011;34212;51.018;13.586;2024-03-02T18:25:28;21.08;;;15.77;;
43154;SDS011;34212;51.018;13.586;2024-03-02T18:30:30;22.42;;;14.98;;
43154;SDS011;34212;51.018;13.586;2024-03-02T18:35:32;23.25;;;15.57;;
43154;SDS011;34212;51.018;13.586;2024-03-02T18:40:34;19.47;;;14.60;;
43154;SDS011;34212;51.018;13.586;2024-03-02T18:45:36;23.13;;;15.88;;
43154;SDS011;34212;51.018;13.586;2024-03-02T18:50:37;23.42;;;15.43;;
43154;SDS011;34212;51.018;13.586;2024-03-02T18:55:39;25.73;;;16.02;;
43154;SDS011;34212;51.018;13.586;2024-03-02T19:00:40;22.40;;;15.10;;
43154;SDS011;34212;51.018;13.586;2024-03-02T19:05:42;22.00;;;14.73;;
43154;SDS011;34212;51.018;13.586;2024-03-02T19:10:44;21.97;;;14.67;;
43154;SDS011;34212;51.018;13.586;2024-03-02T19:15:46;22.83;;;16.42;;
43154;SDS011;34212;51.018;13.586;2024-03-02T19:20:48;22.73;;;17.17;;
43154;SDS011;34212;51.018;13.586;2024-03-02T19:25:49;25.10;;;17.45;;
43154;SDS011;34212;51.018;13.586;2024-03-02T19:30:51;22.38;;;16.98;;
43154;SDS011;34212;51.018;13.586;2024-03-02T19:35:53;22.98;;;16.15;;
43154;SDS011;34212;51.018;13.586;2024-03-02T19:40:55;27.73;;;17.17;;
43154;SDS011;34212;51.018;13.586;2024-03-02T19:45:56;23.10;;;16.27;;
43154;SDS011;34212;51.018;13.586;2024-03-02T19:50:58;22.38;;;16.50;;
43154;SDS011;34212;51.018;13.586;2024-03-02T19:55:59;25.50;;;18.40;;
43154;SDS011;34212;51.018;13.586;2024-03-02T20:01:01;24.90;;;17.73;;
43154;SDS011;34212;51.018;13.586;2024-03-02T20:06:03;26.52;;;18.20;;
43154;SDS011;34212;51.018;13.586;2024-03-02T20:11:06;28.73;;;19.45;;
43154;SDS011;34212;51.018;13.586;2024-03-02T20:16:07;33.42;;;19.48;;
43154;SDS011;34212;51.018;13.586;2024-03-02T20:21:09;27.02;;;18.90;;
43154;SDS011;34212;51.018;13.586;2024-03-02T20:26:11;29.52;;;20.05;;
43154;SDS011;34212;51.018;13.586;2024-03-02T20:31:12;33.92;;;19.88;;
43154;SDS011;34212;51.018;13.586;2024-03-02T20:41:17;29.15;;;18.85;;
43154;SDS011;34212;51.018;13.586;2024-03-02T20:46:19;29.65;;;20.15;;
43154;SDS011;34212;51.018;13.586;2024-03-02T20:51:21;33.42;;;21.73;;
43154;SDS011;34212;51.018;13.586;2024-03-02T20:56:23;32.25;;;20.83;;
43154;SDS011;34212;51.018;13.586;2024-03-02T21:01:25;29.33;;;19.35;;
43154;SDS011;34212;51.018;13.586;2024-03-02T21:06:26;30.13;;;18.85;;
43154;SDS011;34212;51.018;13.586;2024-03-02T21:11:28;30.70;;;21.30;;
43154;SDS011;34212;51.018;13.586;2024-03-02T21:16:29;33.53;;;20.52;;
43154;SDS011;34212;51.018;13.586;2024-03-02T21:21:31;30.75;;;20.17;;
43154;SDS011;34212;51.018;13.586;2024-03-02T21:26:36;31.08;;;21.80;;
43154;SDS011;34212;51.018;13.586;2024-03-02T21:31:42;33.40;;;22.25;;
43154;SDS011;34212;51.018;13.586;2024-03-02T21:36:43;32.53;;;20.38;;
43154;SDS011;34212;51.018;13.586;2024-03-02T21:41:45;30.98;;;21.60;;
43154;SDS011;34212;51.018;13.586;2024-03-02T21:46:47;31.48;;;21.00;;
43154;SDS011;34212;51.018;13.586;2024-03-02T21:51:49;33.42;;;21.67;;
43154;SDS011;34212;51.018;13.586;2024-03-02T21:56:50;34.25;;;24.35;;
43154;SDS011;34212;51.018;13.586;2024-03-02T22:01:52;44.73;;;25.67;;
43154;SDS011;34212;51.018;13.586;2024-03-02T22:06:54;33.90;;;21.38;;
43154;SDS011;34212;51.018;13.586;2024-03-02T22:11:56;36.75;;;24.63;;
43154;SDS011;34212;51.018;13.586;2024-03-02T22:16:57;38.85;;;24.50;;
43154;SDS011;34212;51.018;13.586;2024-03-02T22:21:59;38.83;;;24.85;;
43154;SDS011;34212;51.018;13.586;2024-03-02T22:27:01;39.85;;;24.08;;
43154;SDS011;34212;51.018;13.586;2024-03-02T22:32:02;42.00;;;25.40;;
43154;SDS011;34212;51.018;13.586;2024-03-02T22:37:04;38.72;;;25.58;;
43154;SDS011;34212;51.018;13.586;2024-03-02T22:42:05;40.97;;;26.77;;
43154;SDS011;34212;51.018;13.586;2024-03-02T22:47:07;37.50;;;25.67;;
43154;SDS011;34212;51.018;13.586;2024-03-02T22:52:09;37.47;;;25.95;;
43154;SDS011;34212;51.018;13.586;2024-03-02T22:57:10;39.95;;;26.65;;
43154;SDS011;34212;51.018;13.586;2024-03-02T23:02:18;43.95;;;27.63;;
43154;SDS011;34212;51.018;13.586;2024-03-02T23:07:19;42.33;;;28.63;;
43154;SDS011;34212;51.018;13.586;2024-03-02T23:12:22;39.25;;;28.20;;
43154;SDS011;34212;51.018;13.586;2024-03-02T23:17:24;41.85;;;27.50;;
43154;SDS011;34212;51.018;13.586;2024-03-02T23:22:25;39.95;;;28.33;;
43154;SDS011;34212;51.018;13.586;2024-03-02T23:27:27;45.42;;;28.38;;
43154;SDS011;34212;51.018;13.586;2024-03-02T23:32:28;43.38;;;27.23;;
43154;SDS011;34212;51.018;13.586;2024-03-02T23:37:30;45.63;;;27.35;;
43154;SDS011;34212;51.018;13.586;2024-03-02T23:42:32;39.33;;;26.55;;
43154;SDS011;34212;51.018;13.586;2024-03-02T23:47:34;36.85;;;26.30;;
43154;SDS011;34212;51.018;13.586;2024-03-02T23:52:36;38.97;;;25.92;;
43154;SDS011;34212;51.018;13.586;2024-03-02T23:57:38;35.70;;;24.35;;
